createdAt,value
2023-05-09T00:00:33.744Z,99465.91
2023-05-09T00:03:00.998Z,99462.44
2023-05-09T00:05:44.006Z,99466.91
2023-05-09T00:08:26.094Z,99458.19
2023-05-09T00:11:11.542Z,99465.59
2023-05-09T00:13:42.147Z,99462.38
2023-05-09T00:16:09.519Z,99461.06
2023-05-09T00:18:37.732Z,99459.75
2023-05-09T00:21:04.802Z,99454.69
2023-05-09T00:23:31.715Z,99456.03
2023-05-09T00:25:59.550Z,99454.88
2023-05-09T00:28:26.586Z,99446.41
2023-05-09T00:30:53.862Z,99446.41
2023-05-09T00:33:21.278Z,99449.56
2023-05-09T00:35:48.204Z,99433.38
2023-05-09T00:38:15.127Z,99444.34
2023-05-09T00:40:42.070Z,99439.03
2023-05-09T00:43:09.013Z,99443.38
2023-05-09T00:45:36.023Z,99435.53
2023-05-09T00:48:03.481Z,99418.00
2023-05-09T00:50:31.367Z,99440.91
2023-05-09T00:52:59.003Z,99427.84
2023-05-09T00:55:27.525Z,99429.66
2023-05-09T00:57:54.559Z,99434.13
2023-05-09T01:00:21.720Z,99431.47
2023-05-09T01:02:53.662Z,99429.91
2023-05-09T01:05:44.399Z,99422.28
2023-05-09T01:08:51.595Z,99431.50
2023-05-09T01:11:49.651Z,99433.97
2023-05-09T01:15:01.680Z,99425.00
2023-05-09T01:17:39.182Z,99372.25
2023-05-09T01:20:18.843Z,99414.31
2023-05-09T01:22:52.071Z,99418.69
2023-05-09T01:25:44.314Z,99421.22
2023-05-09T01:28:22.695Z,99417.47
2023-05-09T01:30:53.795Z,99400.78
2023-05-09T01:33:22.326Z,99389.53
2023-05-09T01:35:58.176Z,99415.19
2023-05-09T01:38:26.156Z,99416.72
2023-05-09T01:40:55.542Z,99409.56
2023-05-09T01:43:28.059Z,99406.91
2023-05-09T01:45:56.176Z,99410.44
2023-05-09T01:48:26.657Z,99413.69
2023-05-09T01:50:55.177Z,99381.38
2023-05-09T01:53:24.562Z,99415.50
2023-05-09T01:55:52.554Z,99413.81
2023-05-09T01:58:22.081Z,99414.06
2023-05-09T02:00:50.880Z,99404.63
2023-05-09T02:03:18.796Z,99386.59
2023-05-09T02:05:47.576Z,99400.03
2023-05-09T02:08:15.529Z,99404.50
2023-05-09T02:10:44.076Z,99389.16
2023-05-09T02:13:11.161Z,99396.63
2023-05-09T02:15:38.849Z,99393.84
2023-05-09T02:18:06.040Z,99388.13
2023-05-09T02:20:36.124Z,99384.22
2023-05-09T02:23:03.414Z,99387.38
2023-05-09T02:25:32.157Z,99392.59
2023-05-09T02:28:00.188Z,99387.28
2023-05-09T02:30:31.406Z,99374.31
2023-05-09T02:33:03.643Z,99388.81
2023-05-09T02:35:31.205Z,99378.22
2023-05-09T02:37:59.757Z,99394.41
2023-05-09T02:40:30.725Z,99389.09
2023-05-09T02:42:58.053Z,99384.88
2023-05-09T02:45:26.429Z,99395.16
2023-05-09T02:47:53.759Z,99394.69
2023-05-09T02:50:20.783Z,99382.81
2023-05-09T02:52:47.796Z,99389.59
2023-05-09T02:55:14.920Z,99387.19
2023-05-09T02:57:42.119Z,99389.28
2023-05-09T03:00:12.422Z,99390.13
2023-05-09T03:02:39.916Z,99387.00
2023-05-09T03:05:07.550Z,99387.00
2023-05-09T03:07:35.179Z,99390.63
2023-05-09T03:10:02.182Z,99379.09
2023-05-09T03:12:29.101Z,99389.19
2023-05-09T03:14:55.970Z,99390.16
2023-05-09T03:17:23.486Z,99392.81
2023-05-09T03:19:50.501Z,99384.13
2023-05-09T03:22:17.484Z,99391.84
2023-05-09T03:24:44.374Z,99387.09
2023-05-09T03:27:11.689Z,99383.84
2023-05-09T03:29:38.630Z,99387.84
2023-05-09T03:32:05.979Z,99394.03
2023-05-09T03:34:33.080Z,99385.88
2023-05-09T03:36:59.990Z,99392.25
2023-05-09T03:39:26.893Z,99392.59
2023-05-09T03:41:53.968Z,99390.41
2023-05-09T03:44:21.219Z,99397.91
2023-05-09T03:46:48.156Z,99398.22
2023-05-09T03:49:15.115Z,99391.91
2023-05-09T03:51:42.258Z,99394.06
2023-05-09T03:54:09.377Z,99392.84
2023-05-09T03:56:36.535Z,99388.94
2023-05-09T03:59:03.477Z,99351.56
2023-05-09T04:01:31.834Z,99388.13
2023-05-09T04:03:58.880Z,99396.44
2023-05-09T04:06:26.017Z,99402.97
2023-05-09T04:08:53.115Z,99390.91
2023-05-09T04:11:20.070Z,99358.97
2023-05-09T04:13:46.957Z,99387.75
2023-05-09T04:16:14.865Z,99393.28
2023-05-09T04:18:42.499Z,99396.97
2023-05-09T04:21:09.967Z,99385.19
2023-05-09T04:23:36.947Z,99391.66
2023-05-09T04:26:03.942Z,99390.88
2023-05-09T04:28:30.896Z,99389.19
2023-05-09T04:30:58.294Z,99382.19
2023-05-09T04:33:25.273Z,99387.28
2023-05-09T04:35:52.520Z,99392.53
2023-05-09T04:38:19.514Z,99387.50
2023-05-09T04:40:46.497Z,99381.75
2023-05-09T04:43:13.458Z,99377.31
2023-05-09T04:45:40.913Z,99381.22
2023-05-09T04:48:07.941Z,99379.47
2023-05-09T04:50:34.909Z,99375.28
2023-05-09T04:53:01.847Z,99363.50
2023-05-09T04:55:28.747Z,99366.47
2023-05-09T04:57:55.672Z,99363.34
2023-05-09T05:00:23.081Z,99368.25
2023-05-09T05:02:50.176Z,99352.63
2023-05-09T05:05:17.216Z,99358.44
2023-05-09T05:07:44.361Z,99340.16
2023-05-09T05:10:11.469Z,99359.22
2023-05-09T05:12:38.350Z,99359.81
2023-05-09T05:15:05.875Z,99362.03
2023-05-09T05:17:32.860Z,99367.69
2023-05-09T05:19:59.855Z,99370.88
2023-05-09T05:22:26.822Z,99360.63
2023-05-09T05:24:53.756Z,99359.81
2023-05-09T05:27:20.778Z,99364.34
2023-05-09T05:29:47.650Z,99360.41
2023-05-09T05:32:14.651Z,99357.69
2023-05-09T05:34:41.603Z,99354.94
2023-05-09T05:37:08.589Z,99356.78
2023-05-09T05:39:35.543Z,99359.50
2023-05-09T05:42:02.459Z,99358.16
2023-05-09T05:44:29.569Z,99346.41
2023-05-09T05:46:56.475Z,99349.41
2023-05-09T05:49:25.257Z,99314.81
2023-05-09T05:51:52.235Z,99347.59
2023-05-09T05:54:19.246Z,99341.88
2023-05-09T05:56:46.212Z,99342.63
2023-05-09T05:59:13.630Z,99345.03
2023-05-09T06:01:41.017Z,99357.25
2023-05-09T06:04:08.095Z,99331.41
2023-05-09T06:06:35.132Z,99334.63
2023-05-09T06:09:02.141Z,99332.31
2023-05-09T06:11:29.126Z,99333.22
2023-05-09T06:13:56.014Z,99317.38
2023-05-09T06:16:23.096Z,99320.97
2023-05-09T06:18:50.132Z,99319.81
2023-05-09T06:21:17.106Z,99320.88
2023-05-09T06:23:57.596Z,99310.78
2023-05-09T06:26:32.064Z,99317.78
2023-05-09T06:28:59.637Z,99320.34
2023-05-09T06:31:26.579Z,99315.91
2023-05-09T06:33:53.737Z,99312.47
2023-05-09T06:36:20.793Z,99288.34
2023-05-09T06:38:47.701Z,99320.78
2023-05-09T06:41:14.641Z,99306.25
2023-05-09T06:43:41.538Z,99320.25
2023-05-09T06:46:08.494Z,99319.91
2023-05-09T06:48:35.396Z,99311.09
2023-05-09T06:51:02.344Z,99304.72
2023-05-09T06:53:29.234Z,99305.19
2023-05-09T06:55:56.267Z,99304.50
2023-05-09T06:58:23.796Z,99302.78
2023-05-09T07:00:51.562Z,99304.09
2023-05-09T07:03:18.560Z,99303.78
2023-05-09T07:05:45.843Z,99295.75
2023-05-09T07:08:12.834Z,99301.47
2023-05-09T07:10:40.131Z,99301.72
2023-05-09T07:13:07.172Z,99303.66
2023-05-09T07:15:41.931Z,99293.69
2023-05-09T07:18:10.194Z,99285.81
2023-05-09T07:20:38.655Z,99280.31
2023-05-09T07:23:06.283Z,99288.72
2023-05-09T07:25:33.761Z,99279.94
2023-05-09T07:28:01.264Z,99272.69
2023-05-09T07:30:28.323Z,99277.63
2023-05-09T07:32:55.294Z,99289.22
2023-05-09T07:35:23.422Z,99280.13
2023-05-09T07:37:50.526Z,99279.97
2023-05-09T07:40:18.263Z,99276.31
2023-05-09T07:42:50.075Z,99272.91
2023-05-09T07:45:18.860Z,99270.38
2023-05-09T07:47:46.894Z,99269.47
2023-05-09T07:50:14.019Z,99268.94
2023-05-09T07:52:40.899Z,99265.66
2023-05-09T07:55:08.106Z,99266.56
2023-05-09T07:57:35.178Z,99267.84
2023-05-09T08:00:02.133Z,99251.66
2023-05-09T08:02:29.192Z,99255.28
2023-05-09T08:04:56.195Z,99229.25
2023-05-09T08:07:23.076Z,99247.66
2023-05-09T08:09:50.067Z,99197.19
2023-05-09T08:12:17.590Z,99245.94
2023-05-09T08:14:44.527Z,99250.50
2023-05-09T08:17:11.415Z,99251.78
2023-05-09T08:19:38.404Z,99254.47
2023-05-09T08:22:05.512Z,99249.78
2023-05-09T08:24:32.928Z,99250.84
2023-05-09T08:27:00.254Z,99254.41
2023-05-09T08:29:27.197Z,99253.56
2023-05-09T08:31:54.236Z,99255.50
2023-05-09T08:34:21.455Z,99228.34
2023-05-09T08:36:48.854Z,99245.16
2023-05-09T08:39:15.809Z,99241.81
2023-05-09T08:41:43.434Z,99238.88
2023-05-09T08:44:11.162Z,99249.38
2023-05-09T08:46:43.870Z,99251.03
2023-05-09T08:49:11.524Z,99253.88
2023-05-09T08:51:40.112Z,99250.91
2023-05-09T08:54:07.272Z,99244.91
2023-05-09T08:56:35.783Z,99248.94
2023-05-09T08:59:04.078Z,99248.97
2023-05-09T09:01:31.806Z,99221.81
2023-05-09T09:03:59.277Z,99243.97
2023-05-09T09:06:26.493Z,99239.75
2023-05-09T09:08:56.360Z,99230.13
2023-05-09T09:11:23.389Z,99230.78
2023-05-09T09:13:54.487Z,99231.66
2023-05-09T09:16:23.037Z,99228.91
2023-05-09T09:18:53.336Z,99236.69
2023-05-09T09:21:21.282Z,99241.28
2023-05-09T09:23:49.205Z,99198.78
2023-05-09T09:26:16.877Z,99228.53
2023-05-09T09:28:43.946Z,99229.38
2023-05-09T09:31:21.871Z,99226.84
2023-05-09T09:33:49.590Z,99224.56
2023-05-09T09:36:16.573Z,99214.28
2023-05-09T09:38:44.143Z,99216.41
2023-05-09T09:41:13.284Z,99203.13
2023-05-09T09:43:46.227Z,99198.31
2023-05-09T09:46:14.449Z,99198.72
2023-05-09T09:48:51.339Z,99202.13
2023-05-09T09:51:18.946Z,99202.53
2023-05-09T09:53:47.038Z,99202.31
2023-05-09T09:56:14.142Z,99188.41
2023-05-09T09:58:41.086Z,99192.72
2023-05-09T10:01:10.318Z,99197.25
2023-05-09T10:03:42.375Z,99186.69
2023-05-09T10:06:14.044Z,99196.78
2023-05-09T10:08:42.327Z,99185.63
2023-05-09T10:11:10.676Z,99176.53
2023-05-09T10:13:38.777Z,99186.69
2023-05-09T10:16:09.147Z,99185.06
2023-05-09T10:18:36.930Z,99174.66
2023-05-09T10:21:06.928Z,99182.38
2023-05-09T10:23:38.065Z,99175.41
2023-05-09T10:26:27.794Z,99175.41
2023-05-09T10:29:00.951Z,99171.84
2023-05-09T10:31:29.731Z,99158.78
2023-05-09T10:33:57.446Z,99163.22
2023-05-09T10:36:25.150Z,99152.47
2023-05-09T10:38:55.239Z,99160.16
2023-05-09T10:41:41.384Z,99152.88
2023-05-09T10:44:10.263Z,99164.03
2023-05-09T10:46:37.768Z,99158.47
2023-05-09T10:49:05.168Z,99153.41
2023-05-09T10:51:32.848Z,99147.00
2023-05-09T10:53:59.820Z,99143.34
2023-05-09T10:56:36.032Z,99148.78
2023-05-09T10:59:03.272Z,99144.88
2023-05-09T11:01:39.831Z,99141.13
2023-05-09T11:04:11.698Z,99141.38
2023-05-09T11:06:52.289Z,99139.66
2023-05-09T11:09:38.210Z,99138.34
2023-05-09T11:12:05.330Z,99136.09
2023-05-09T11:14:39.546Z,99118.78
2023-05-09T11:17:13.246Z,99124.34
2023-05-09T11:19:43.286Z,99110.41
2023-05-09T11:22:28.237Z,99098.31
2023-05-09T11:25:15.552Z,99085.06
2023-05-09T11:27:48.957Z,99107.22
2023-05-09T11:30:20.803Z,99094.38
2023-05-09T11:33:01.061Z,99099.09
2023-05-09T11:35:28.384Z,99095.97
2023-05-09T11:38:06.476Z,99089.13
2023-05-09T11:40:35.222Z,99098.72
2023-05-09T11:43:02.537Z,99051.28
2023-05-09T11:45:32.036Z,99086.38
2023-05-09T11:48:01.794Z,99084.59
2023-05-09T11:50:28.845Z,99049.47
2023-05-09T11:52:56.153Z,99070.28
2023-05-09T11:55:23.427Z,99079.16
2023-05-09T11:57:52.516Z,99065.66
2023-05-09T12:00:22.232Z,99075.78
2023-05-09T12:02:51.283Z,99077.44
2023-05-09T12:05:20.524Z,99074.22
2023-05-09T12:07:47.917Z,99054.13
2023-05-09T12:10:23.181Z,99065.28
2023-05-09T12:12:52.202Z,99036.50
2023-05-09T12:15:21.845Z,99059.25
2023-05-09T12:18:02.269Z,99036.16
2023-05-09T12:20:39.611Z,99045.69
2023-05-09T12:23:07.348Z,99051.88
2023-05-09T12:25:34.268Z,99052.22
2023-05-09T12:28:01.256Z,99035.06
2023-05-09T12:30:28.405Z,99037.50
2023-05-09T12:32:56.562Z,99035.91
2023-05-09T12:35:23.754Z,98999.19
2023-05-09T12:37:59.832Z,99032.59
2023-05-09T12:40:27.129Z,99025.06
2023-05-09T12:42:57.503Z,99028.50
2023-05-09T12:45:24.621Z,99027.59
2023-05-09T12:47:54.542Z,99033.38
2023-05-09T12:50:21.672Z,99036.19
2023-05-09T12:53:02.491Z,99030.22
2023-05-09T12:55:31.968Z,99028.53
2023-05-09T12:58:01.887Z,99030.06
2023-05-09T13:00:29.710Z,98990.50
2023-05-09T13:02:57.307Z,99018.38
2023-05-09T13:05:24.617Z,99021.41
2023-05-09T13:07:52.960Z,99007.03
2023-05-09T13:10:29.263Z,98999.31
2023-05-09T13:12:56.273Z,99002.56
2023-05-09T13:15:24.334Z,98990.75
2023-05-09T13:17:52.625Z,98982.72
2023-05-09T13:20:19.962Z,98992.44
2023-05-09T13:22:48.777Z,98989.88
2023-05-09T13:25:17.108Z,98988.81
2023-05-09T13:27:43.977Z,98981.31
2023-05-09T13:30:11.481Z,98979.56
2023-05-09T13:32:38.421Z,98975.66
2023-05-09T13:35:08.139Z,98979.72
2023-05-09T13:37:35.578Z,98957.59
2023-05-09T13:40:03.277Z,98979.59
2023-05-09T13:42:30.298Z,98980.88
2023-05-09T13:44:57.263Z,98973.66
2023-05-09T13:47:24.214Z,98955.91
2023-05-09T13:49:52.418Z,98962.41
2023-05-09T13:52:20.190Z,98961.06
2023-05-09T13:54:47.488Z,98957.25
2023-05-09T13:57:14.474Z,98956.41
2023-05-09T13:59:41.865Z,98940.56
2023-05-09T14:02:09.174Z,98957.31
2023-05-09T14:04:36.134Z,98954.50
2023-05-09T14:07:03.381Z,98952.81
2023-05-09T14:09:30.313Z,98941.06
2023-05-09T14:11:57.635Z,98938.44
2023-05-09T14:14:25.952Z,98933.63
2023-05-09T14:16:54.203Z,98925.59
2023-05-09T14:19:21.759Z,98924.88
2023-05-09T14:21:48.715Z,98925.19
2023-05-09T14:24:16.452Z,98925.44
2023-05-09T14:26:44.117Z,98930.50
2023-05-09T14:29:12.690Z,98908.06
2023-05-09T14:31:39.807Z,98916.09
2023-05-09T14:34:06.823Z,98926.06
2023-05-09T14:36:33.791Z,98927.06
2023-05-09T14:39:00.726Z,98917.03
2023-05-09T14:41:27.693Z,98923.84
2023-05-09T14:43:54.614Z,98919.34
2023-05-09T14:46:23.086Z,98925.25
2023-05-09T14:48:50.002Z,98924.47
2023-05-09T14:51:17.058Z,98917.25
2023-05-09T14:53:44.407Z,98911.53
2023-05-09T14:56:11.903Z,98914.25
2023-05-09T14:58:38.892Z,98915.94
2023-05-09T15:01:06.069Z,98896.88
2023-05-09T15:03:33.081Z,98902.25
2023-05-09T15:06:00.152Z,98903.94
2023-05-09T15:08:27.316Z,98893.28
2023-05-09T15:10:54.379Z,98869.25
2023-05-09T15:13:21.854Z,98883.84
2023-05-09T15:15:48.907Z,98873.63
2023-05-09T15:18:17.238Z,98881.44
2023-05-09T15:20:44.821Z,98875.44
2023-05-09T15:23:13.336Z,98871.44
2023-05-09T15:25:42.758Z,98872.59
2023-05-09T15:28:09.706Z,98844.97
2023-05-09T15:30:38.454Z,98860.94
2023-05-09T15:33:05.712Z,98842.00
2023-05-09T15:35:32.693Z,98853.53
2023-05-09T15:38:00.204Z,98848.63
2023-05-09T15:40:28.467Z,98850.16
2023-05-09T15:42:55.508Z,98858.38
2023-05-09T15:45:22.525Z,98849.13
2023-05-09T15:47:49.487Z,98843.97
2023-05-09T15:50:16.862Z,98854.22
2023-05-09T15:52:43.997Z,98841.28
2023-05-09T15:55:13.106Z,98832.72
2023-05-09T15:57:40.187Z,98837.75
2023-05-09T16:00:07.644Z,98840.97
2023-05-09T16:02:34.606Z,98837.53
2023-05-09T16:05:01.977Z,98826.25
2023-05-09T16:07:28.996Z,98827.19
2023-05-09T16:09:55.895Z,98828.34
2023-05-09T16:12:22.897Z,98821.56
2023-05-09T16:14:49.865Z,98827.94
2023-05-09T16:17:16.752Z,98821.38
2023-05-09T16:19:43.737Z,98816.41
2023-05-09T16:22:10.725Z,98823.06
2023-05-09T16:24:37.912Z,98822.06
2023-05-09T16:27:04.972Z,98821.84
2023-05-09T16:29:31.881Z,98794.75
2023-05-09T16:31:59.096Z,98811.63
2023-05-09T16:34:26.024Z,98800.78
2023-05-09T16:36:52.929Z,98796.56
2023-05-09T16:39:19.971Z,98799.44
2023-05-09T16:41:46.883Z,98798.31
2023-05-09T16:44:13.863Z,98791.88
2023-05-09T16:46:41.344Z,98796.44
2023-05-09T16:49:08.276Z,98726.56
2023-05-09T16:51:35.686Z,98798.78
2023-05-09T16:54:02.587Z,98790.53
2023-05-09T16:56:29.537Z,98792.28
2023-05-09T16:58:56.504Z,98789.44
2023-05-09T17:01:23.454Z,98794.09
2023-05-09T17:03:50.681Z,98784.78
2023-05-09T17:06:18.103Z,98780.72
2023-05-09T17:08:45.903Z,98782.41
2023-05-09T17:11:12.866Z,98782.34
2023-05-09T17:13:41.124Z,98780.25
2023-05-09T17:16:08.005Z,98788.66
2023-05-09T17:18:37.910Z,98780.38
2023-05-09T17:21:06.941Z,98771.97
2023-05-09T17:23:33.951Z,98782.53
2023-05-09T17:26:00.859Z,98776.44
2023-05-09T17:28:27.957Z,98777.28
2023-05-09T17:30:54.991Z,98776.28
2023-05-09T17:33:22.186Z,98772.72
2023-05-09T17:35:50.236Z,98784.44
2023-05-09T17:38:17.834Z,98780.56
2023-05-09T17:40:45.605Z,98765.16
2023-05-09T17:43:13.555Z,98776.22
2023-05-09T17:45:40.489Z,98776.66
2023-05-09T17:48:07.523Z,98772.75
2023-05-09T17:50:34.485Z,98776.28
2023-05-09T17:53:01.468Z,98773.00
2023-05-09T17:55:28.393Z,98776.75
2023-05-09T17:57:55.291Z,98773.81
2023-05-09T18:00:22.481Z,98772.97
2023-05-09T18:02:51.281Z,98778.44
2023-05-09T18:05:18.590Z,98776.56
2023-05-09T18:07:45.583Z,98772.19
2023-05-09T18:10:12.990Z,98772.19
2023-05-09T18:12:40.107Z,98776.56
2023-05-09T18:15:07.830Z,98767.19
2023-05-09T18:17:34.799Z,98771.75
2023-05-09T18:20:02.286Z,98771.31
2023-05-09T18:22:29.194Z,98780.50
2023-05-09T18:24:56.337Z,98772.97
2023-05-09T18:27:23.322Z,98769.22
2023-05-09T18:29:50.363Z,98777.31
2023-05-09T18:32:18.125Z,98775.88
2023-05-09T18:34:45.032Z,98776.03
2023-05-09T18:37:11.974Z,98776.66
2023-05-09T18:39:38.963Z,98776.00
2023-05-09T18:42:06.616Z,98785.28
2023-05-09T18:44:33.833Z,98787.75
2023-05-09T18:47:00.854Z,98783.59
2023-05-09T18:49:27.799Z,98781.44
2023-05-09T18:51:56.650Z,98785.41
2023-05-09T18:54:23.711Z,98745.84
2023-05-09T18:56:50.724Z,98790.50
2023-05-09T18:59:18.098Z,98786.66
2023-05-09T19:01:45.033Z,98785.78
2023-05-09T19:04:12.287Z,98785.13
2023-05-09T19:06:39.307Z,98786.13
2023-05-09T19:09:06.372Z,98783.59
2023-05-09T19:11:33.306Z,98780.63
2023-05-09T19:14:00.360Z,98778.13
2023-05-09T19:16:27.310Z,98785.94
2023-05-09T19:18:58.355Z,98772.84
2023-05-09T19:24:09.763Z,98775.88
2023-05-09T19:26:36.717Z,98775.09
2023-05-09T19:29:08.297Z,98772.25
2023-05-09T19:31:37.478Z,98774.78
2023-05-09T19:34:04.431Z,98763.72
2023-05-09T19:36:32.260Z,98770.06
2023-05-09T19:38:59.223Z,98771.28
2023-05-09T19:41:26.262Z,98767.31
2023-05-09T19:43:53.654Z,98761.91
2023-05-09T19:46:20.611Z,98769.59
2023-05-09T19:48:47.574Z,98771.94
2023-05-09T19:51:15.676Z,98763.63
2023-05-09T19:53:42.609Z,98764.88
2023-05-09T19:56:09.774Z,98712.63
2023-05-09T19:58:36.820Z,98765.88
2023-05-09T20:01:05.426Z,98763.75
2023-05-09T20:03:33.731Z,98765.22
2023-05-09T20:08:47.172Z,98751.09
2023-05-09T20:11:15.019Z,98763.38
2023-05-09T20:13:43.041Z,98746.28
2023-05-09T20:16:09.941Z,98763.00
2023-05-09T20:18:37.022Z,98759.81
2023-05-09T20:21:04.127Z,98748.41
2023-05-09T20:23:31.427Z,98759.31
2023-05-09T20:25:58.446Z,98761.88
2023-05-09T20:28:25.518Z,98732.72
2023-05-09T20:30:52.378Z,98759.44
2023-05-09T20:33:19.309Z,98753.06
2023-05-09T20:35:46.282Z,98752.88
2023-05-09T20:38:13.191Z,98749.56
2023-05-09T20:40:41.211Z,98766.22
2023-05-09T20:43:08.257Z,98750.19
2023-05-09T20:45:37.482Z,98759.81
2023-05-09T20:48:05.927Z,98757.28
2023-05-09T20:50:32.845Z,98752.66
2023-05-09T20:52:59.759Z,98702.66
2023-05-09T20:55:26.854Z,98752.34
2023-05-09T20:57:53.807Z,98754.81
2023-05-09T21:00:20.667Z,98748.19
2023-05-09T21:02:47.706Z,98752.25
2023-05-09T21:05:14.583Z,98759.50
2023-05-09T21:07:41.434Z,98746.66
2023-05-09T21:10:10.418Z,98746.31
2023-05-09T21:12:37.446Z,98747.50
2023-05-09T21:15:04.698Z,98745.00
2023-05-09T21:17:31.612Z,98740.44
2023-05-09T21:19:58.588Z,98738.75
2023-05-09T21:22:25.470Z,98748.28
2023-05-09T21:24:52.367Z,98747.63
2023-05-09T21:27:19.322Z,98733.47
2023-05-09T21:29:49.377Z,98741.59
2023-05-09T21:32:17.164Z,98732.19
2023-05-09T21:34:44.081Z,98731.94
2023-05-09T21:37:11.029Z,98738.09
2023-05-09T21:39:37.912Z,98743.03
2023-05-09T21:42:04.809Z,98738.84
2023-05-09T21:44:31.762Z,98742.13
2023-05-09T21:46:58.728Z,98727.16
2023-05-09T21:49:28.843Z,98747.91
2023-05-09T21:51:56.000Z,98744.19
2023-05-09T21:54:23.490Z,98733.28
2023-05-09T21:56:50.514Z,98741.66
2023-05-09T21:59:20.900Z,98735.09
2023-05-09T22:01:47.967Z,98729.69
2023-05-09T22:04:15.425Z,98738.81
2023-05-09T22:06:43.156Z,98739.84
2023-05-09T22:09:10.522Z,98737.13
2023-05-09T22:11:37.895Z,98732.69
2023-05-09T22:14:04.840Z,98711.78
2023-05-09T22:16:31.708Z,98727.41
2023-05-09T22:18:58.692Z,98724.34
2023-05-09T22:21:25.676Z,98732.44
2023-05-09T22:23:52.753Z,98725.75
2023-05-09T22:26:19.794Z,98725.00
2023-05-09T22:28:46.727Z,98725.69
2023-05-09T22:31:13.677Z,98727.91
2023-05-09T22:33:40.801Z,98725.22
2023-05-09T22:36:07.907Z,98723.09
2023-05-09T22:38:34.783Z,98670.84
2023-05-09T22:41:01.649Z,98717.41
2023-05-09T22:43:33.821Z,98710.22
2023-05-09T22:46:06.033Z,98718.81
2023-05-09T22:48:33.060Z,98708.59
2023-05-09T22:51:00.047Z,98712.13
2023-05-09T22:53:28.857Z,98715.72
2023-05-09T22:55:55.930Z,98706.50
2023-05-09T22:58:22.907Z,98708.19
2023-05-09T23:00:50.026Z,98710.34
2023-05-09T23:03:17.714Z,98710.06
2023-05-09T23:05:44.741Z,98703.56
2023-05-09T23:08:11.645Z,98709.78
2023-05-09T23:10:38.593Z,98658.91
2023-05-09T23:13:05.579Z,98709.66
2023-05-09T23:15:32.783Z,98702.25
2023-05-09T23:18:00.223Z,98702.44
2023-05-09T23:20:27.294Z,98701.19
2023-05-09T23:22:54.238Z,98696.34
2023-05-09T23:25:21.291Z,98702.06
2023-05-09T23:27:48.534Z,98695.38
2023-05-09T23:30:16.032Z,98699.75
2023-05-09T23:32:43.163Z,98696.69
2023-05-09T23:35:10.779Z,98697.78
2023-05-09T23:37:37.762Z,98700.75
2023-05-09T23:40:05.329Z,98697.69
2023-05-09T23:42:32.264Z,98692.72
2023-05-09T23:44:59.991Z,98685.19
2023-05-09T23:47:27.252Z,98686.25
2023-05-09T23:49:54.172Z,98679.81
2023-05-09T23:52:21.927Z,98674.34
2023-05-09T23:54:49.282Z,98659.81
2023-05-09T23:57:16.150Z,98675.88
2023-05-09T23:59:43.118Z,98678.28
